Time;durP1;ratioP1;P1;durP2;ratioP2;P2;SDS_P1;SDS_P2;PMS_P1;PMS_P2;Temp;Humidity;BMP_temperature;BMP_pressure;BME280_temperature;BME280_humidity;BME280_pressure;Samples;Min_cycle;Max_cycle;Signal;HPM_P1;HPM_P2
2021/01/31 00:02:17;;;;;;;173.23;80.03;;;7.70;84.60;;;;;;5120951;27;20477;-64
2021/01/31 00:04:47;;;;;;;169.38;81.95;;;7.70;84.10;;;;;;5137949;27;20125;-64
2021/01/31 00:07:14;;;;;;;113.38;56.15;;;7.60;84.10;;;;;;5121047;27;20026;-63
2021/01/31 00:09:40;;;;;;;145.45;70.72;;;7.60;80.70;;;;;;5155097;27;20026;-64
2021/01/31 00:12:06;;;;;;;158.50;75.90;;;7.60;85.00;;;;;;5137900;27;20389;-65
2021/01/31 00:14:32;;;;;;;158.63;74.13;;;7.60;85.20;;;;;;5138096;27;20030;-65
2021/01/31 00:16:58;;;;;;;148.55;71.35;;;7.50;86.10;;;;;;5137877;27;20034;-64
2021/01/31 00:19:23;;;;;;;160.75;76.20;;;7.50;85.40;;;;;;5137920;27;20113;-65
2021/01/31 00:21:49;;;;;;;227.18;102.72;;;7.50;84.40;;;;;;5120704;27;20023;-64
2021/01/31 00:24:15;;;;;;;247.45;112.85;;;7.60;85.00;;;;;;5155123;27;20471;-64
2021/01/31 00:26:41;;;;;;;230.68;108.38;;;7.70;84.00;;;;;;5155011;27;20371;-64
2021/01/31 00:29:07;;;;;;;206.00;99.63;;;7.70;83.40;;;;;;5120552;27;20086;-65
2021/01/31 00:31:33;;;;;;;150.95;78.65;;;7.80;83.20;;;;;;5137486;27;20083;-64
2021/01/31 00:33:59;;;;;;;122.57;61.10;;;7.80;82.30;;;;;;5120332;27;20027;-64
2021/01/31 00:36:25;;;;;;;127.50;63.88;;;7.90;81.70;;;;;;5137847;27;20019;-63
2021/01/31 00:38:51;;;;;;;124.40;65.03;;;7.90;82.10;;;;;;5137537;27;20167;-63
2021/01/31 00:41:16;;;;;;;168.27;83.13;;;7.90;81.90;;;;;;5155954;27;20030;-64
2021/01/31 00:43:42;;;;;;;162.88;78.32;;;7.80;81.60;;;;;;5154727;27;20035;-63
2021/01/31 00:46:08;;;;;;;180.65;86.13;;;7.80;82.60;;;;;;5137720;27;20098;-64
2021/01/31 00:48:34;;;;;;;180.70;86.05;;;7.70;83.30;;;;;;5137503;27;20031;-64
2021/01/31 00:50:59;;;;;;;184.43;88.95;;;7.70;83.40;;;;;;5154532;27;20027;-64
2021/01/31 00:53:26;;;;;;;188.85;92.53;;;7.70;83.10;;;;;;5154498;27;20093;-64
2021/01/31 00:55:52;;;;;;;211.10;100.53;;;7.50;83.10;;;;;;5136987;27;20343;-64
2021/01/31 00:58:17;;;;;;;161.20;80.78;;;7.60;82.60;;;;;;5119937;27;20063;-63
2021/01/31 01:00:43;;;;;;;199.20;95.63;;;7.60;81.70;;;;;;5154353;27;20031;-64
2021/01/31 01:03:09;;;;;;;199.35;99.82;;;7.60;82.90;;;;;;5118777;27;20058;-64
2021/01/31 01:05:35;;;;;;;219.88;108.63;;;7.60;83.70;;;;;;5137041;27;20018;-64
2021/01/31 01:08:01;;;;;;;215.75;103.63;;;7.50;83.60;;;;;;5119542;27;20043;-65
2021/01/31 01:10:30;;;;;;;232.70;111.03;;;7.50;83.10;;;;;;5137019;27;20033;-65
2021/01/31 01:12:56;;;;;;;281.20;119.60;;;7.60;83.20;;;;;;5137066;27;20057;-64
2021/01/31 01:15:24;;;;;;;212.68;102.20;;;7.60;82.20;;;;;;5136923;27;20027;-64
2021/01/31 01:17:50;;;;;;;231.40;102.53;;;7.60;83.10;;;;;;5137057;27;20027;-64
2021/01/31 01:20:16;;;;;;;188.05;88.50;;;7.60;83.70;;;;;;5136825;27;20026;-64
2021/01/31 01:22:42;;;;;;;157.52;78.95;;;7.70;84.50;;;;;;5136696;27;20045;-63
2021/01/31 01:25:09;;;;;;;152.90;74.50;;;7.70;84.00;;;;;;5119595;27;20023;-64
2021/01/31 01:27:35;;;;;;;153.80;74.88;;;7.60;84.60;;;;;;5136407;27;20182;-64
2021/01/31 01:30:00;;;;;;;154.43;74.30;;;7.60;84.40;;;;;;5119344;27;20541;-64
2021/01/31 01:32:26;;;;;;;136.13;70.30;;;7.60;84.40;;;;;;5137022;27;20033;-64
2021/01/31 01:34:52;;;;;;;148.55;75.20;;;7.60;85.50;;;;;;5119295;27;20023;-64
2021/01/31 01:37:18;;;;;;;159.55;79.40;;;7.60;84.30;;;;;;5136560;27;20031;-63
2021/01/31 01:39:44;;;;;;;171.20;79.32;;;7.60;83.70;;;;;;5136243;27;20027;-64
2021/01/31 01:42:10;;;;;;;171.73;85.38;;;7.60;84.30;;;;;;5119275;27;20117;-64
2021/01/31 01:44:36;;;;;;;164.93;84.70;;;7.50;85.60;;;;;;5119153;27;20079;-64
2021/01/31 01:47:03;;;;;;;171.48;83.78;;;7.50;85.30;;;;;;5136418;27;20026;-64
2021/01/31 01:49:31;;;;;;;152.05;74.88;;;7.50;85.50;;;;;;5136482;27;20029;-64
2021/01/31 01:52:02;;;;;;;151.15;74.10;;;7.50;85.50;;;;;;5136402;27;20443;-64
2021/01/31 01:54:32;;;;;;;147.02;73.32;;;7.50;85.90;;;;;;5136971;27;20113;-64
2021/01/31 01:57:02;;;;;;;154.43;74.53;;;7.40;85.90;;;;;;5136927;27;20023;-65
2021/01/31 01:59:29;;;;;;;148.32;71.57;;;7.40;86.10;;;;;;5136806;27;20050;-64
2021/01/31 02:02:20;;;;;;;149.82;74.85;;;7.30;87.30;;;;;;5153526;27;20382;-63
2021/01/31 02:04:46;;;;;;;155.32;76.55;;;7.30;86.80;;;;;;5142055;27;20049;-64
2021/01/31 02:07:12;;;;;;;160.73;76.70;;;7.30;86.60;;;;;;5136234;27;20023;-64
2021/01/31 02:09:38;;;;;;;117.30;58.05;;;7.30;86.90;;;;;;5136063;27;20023;-66
2021/01/31 02:12:05;;;;;;;111.25;53.95;;;7.20;85.10;;;;;;5119039;27;20030;-64
2021/01/31 02:14:32;;;;;;;84.30;37.97;;;7.30;85.40;;;;;;5138726;27;20424;-65
2021/01/31 02:17:26;;;;;;;78.25;40.13;;;7.30;85.20;;;;;;5157594;27;20022;-64
2021/01/31 02:20:15;;;;;;;87.80;44.65;;;7.30;86.10;;;;;;5139274;27;20030;-65
2021/01/31 02:23:05;;;;;;;86.32;44.17;;;7.40;85.20;;;;;;5158588;27;20027;-65
2021/01/31 02:25:52;;;;;;;78.15;37.53;;;7.40;84.10;;;;;;5157186;27;20037;-65
2021/01/31 02:28:54;;;;;;;83.45;42.25;;;7.50;84.60;;;;;;5141186;27;20104;-65
2021/01/31 02:31:41;;;;;;;111.88;56.65;;;7.50;84.70;;;;;;5157377;27;20019;-64
2021/01/31 02:34:17;;;;;;;97.32;47.88;;;7.50;84.70;;;;;;5158745;27;20035;-64
2021/01/31 02:36:52;;;;;;;87.07;45.22;;;7.50;86.20;;;;;;5140658;27;20030;-65
2021/01/31 02:39:21;;;;;;;69.10;39.28;;;7.40;87.40;;;;;;5158025;27;20388;-64
2021/01/31 02:42:08;;;;;;;65.93;34.25;;;7.30;86.60;;;;;;5158384;27;20114;-64
2021/01/31 02:44:36;;;;;;;50.85;27.60;;;7.30;88.30;;;;;;5142248;27;20109;-63
2021/01/31 02:47:03;;;;;;;49.03;27.23;;;7.20;87.80;;;;;;5122488;27;20027;-63
2021/01/31 02:49:40;;;;;;;41.92;24.13;;;7.20;88.20;;;;;;5122579;27;20025;-65
2021/01/31 02:52:52;;;;;;;38.35;22.17;;;7.30;87.30;;;;;;5140178;27;20473;-65
2021/01/31 02:55:48;;;;;;;43.63;25.27;;;7.40;86.20;;;;;;5076977;28;20024;-65
2021/01/31 02:58:27;;;;;;;49.05;26.92;;;7.40;85.90;;;;;;5069610;28;20109;-64
2021/01/31 03:01:07;;;;;;;64.65;34.15;;;7.50;86.00;;;;;;5059839;28;20036;-66
2021/01/31 03:04:06;;;;;;;76.13;38.65;;;7.50;85.50;;;;;;5076541;28;20492;-63
2021/01/31 03:06:35;;;;;;;69.60;36.75;;;7.40;85.80;;;;;;5082150;28;20495;-64
2021/01/31 03:09:12;;;;;;;76.40;37.92;;;7.30;86.40;;;;;;5076919;28;20098;-64
2021/01/31 03:11:46;;;;;;;84.10;41.08;;;7.30;86.30;;;;;;5076713;28;20472;-64
2021/01/31 03:14:31;;;;;;;84.15;41.65;;;7.40;85.60;;;;;;5076637;28;20040;-64
2021/01/31 03:16:59;;;;;;;85.43;42.75;;;7.40;87.40;;;;;;5076575;28;20031;-64
2021/01/31 03:20:07;;;;;;;78.97;40.65;;;7.40;85.40;;;;;;5076477;28;20032;-64
2021/01/31 03:22:42;;;;;;;84.55;41.38;;;7.40;85.90;;;;;;5032863;28;20552;-63
2021/01/31 03:25:11;;;;;;;84.38;40.90;;;7.50;85.70;;;;;;4997752;28;20043;-63
2021/01/31 03:27:38;;;;;;;81.55;39.60;;;7.40;87.20;;;;;;5079835;28;20028;-63
2021/01/31 03:30:09;;;;;;;81.97;40.05;;;7.40;86.90;;;;;;5079742;28;20464;-64
2021/01/31 03:32:56;;;;;;;66.13;33.53;;;7.50;86.00;;;;;;5096805;28;20047;-64
2021/01/31 03:35:35;;;;;;;64.90;32.85;;;7.60;83.20;;;;;;5099183;28;20523;-63
2021/01/31 03:38:15;;;;;;;55.20;28.30;;;7.70;81.70;;;;;;5097481;28;20040;-64
2021/01/31 03:40:46;;;;;;;53.33;29.27;;;7.80;79.30;;;;;;5080955;28;20066;-64
2021/01/31 03:43:11;;;;;;;60.88;31.95;;;7.80;79.00;;;;;;5096501;28;20067;-65
2021/01/31 03:45:41;;;;;;;56.65;31.60;;;7.90;80.70;;;;;;5096309;28;20078;-64
2021/01/31 03:48:18;;;;;;;65.40;32.80;;;8.00;80.30;;;;;;5079573;28;20405;-63
2021/01/31 03:50:44;;;;;;;64.95;34.67;;;8.00;81.00;;;;;;5096642;28;20484;-64
2021/01/31 03:53:10;;;;;;;72.47;35.78;;;8.00;80.20;;;;;;5096283;28;20037;-63
2021/01/31 03:55:36;;;;;;;67.25;34.95;;;8.00;80.60;;;;;;5096460;28;20126;-63
2021/01/31 03:58:04;;;;;;;67.15;34.10;;;8.00;79.40;;;;;;5101382;27;20118;-63
2021/01/31 04:00:35;;;;;;;64.20;34.25;;;8.00;81.10;;;;;;5138442;27;20023;-63
2021/01/31 04:03:18;;;;;;;66.33;34.07;;;8.00;80.50;;;;;;5120856;27;20054;-64
2021/01/31 04:05:50;;;;;;;65.32;35.00;;;8.10;79.40;;;;;;5138377;27;20258;-64
2021/01/31 04:08:16;;;;;;;65.03;33.80;;;8.10;79.60;;;;;;5138768;27;20027;-64
2021/01/31 04:10:42;;;;;;;65.85;34.90;;;8.10;79.60;;;;;;5138145;27;20037;-64
2021/01/31 04:13:09;;;;;;;77.35;39.88;;;7.90;84.60;;;;;;5138251;27;20018;-64
2021/01/31 04:15:51;;;;;;;73.95;38.55;;;7.80;84.40;;;;;;5138135;27;20072;-63
2021/01/31 04:18:18;;;;;;;54.65;29.75;;;7.80;84.90;;;;;;5138130;27;20023;-63
2021/01/31 04:20:44;;;;;;;49.15;29.27;;;7.80;83.10;;;;;;5137966;27;20054;-63
2021/01/31 04:23:10;;;;;;;59.08;29.73;;;7.80;83.30;;;;;;5137852;27;20450;-64
2021/01/31 04:25:36;;;;;;;49.63;29.77;;;7.80;83.30;;;;;;5137762;27;20041;-64
2021/01/31 04:28:09;;;;;;;61.13;34.50;;;7.80;84.00;;;;;;5137818;27;20027;-64
2021/01/31 04:30:37;;;;;;;146.30;51.28;;;7.90;82.60;;;;;;5155053;27;20023;-63
2021/01/31 04:33:02;;;;;;;120.68;47.72;;;7.90;82.40;;;;;;5154949;27;20444;-63
2021/01/31 04:35:28;;;;;;;82.18;38.35;;;8.00;82.20;;;;;;5137654;27;20051;-63
2021/01/31 04:37:54;;;;;;;71.70;37.08;;;8.00;81.50;;;;;;5136363;27;20034;-63
2021/01/31 04:40:20;;;;;;;66.38;33.45;;;8.10;80.90;;;;;;5154782;27;20117;-63
2021/01/31 04:42:46;;;;;;;64.18;35.70;;;8.00;80.90;;;;;;5120247;27;20029;-64
2021/01/31 04:45:12;;;;;;;61.95;36.60;;;7.80;82.90;;;;;;5137540;27;20027;-63
2021/01/31 04:48:12;;;;;;;65.75;35.90;;;7.70;83.90;;;;;;5120278;27;20086;-65
2021/01/31 04:50:59;;;;;;;131.23;64.68;;;7.50;84.00;;;;;;5156114;27;20435;-64
2021/01/31 04:53:31;;;;;;;137.60;69.97;;;7.40;85.80;;;;;;5154569;27;20023;-64
2021/01/31 04:56:39;;;;;;;190.88;94.28;;;7.30;88.70;;;;;;5156109;27;20025;-64
2021/01/31 04:59:21;;;;;;;162.25;85.50;;;7.20;89.80;;;;;;5122959;27;20060;-64
2021/01/31 05:01:46;;;;;;;;;;;7.10;90.00;;;;;;5139303;27;20030;-64
2021/01/31 05:04:12;;;;;;;140.45;72.00;;;7.10;90.10;;;;;;5153796;27;20382;-64
2021/01/31 05:06:43;;;;;;;131.50;67.70;;;7.00;90.30;;;;;;5119840;27;20494;-64
2021/01/31 05:09:16;;;;;;;116.60;61.10;;;7.10;90.20;;;;;;5137311;27;20019;-63
2021/01/31 05:12:05;;;;;;;120.82;66.53;;;7.10;90.30;;;;;;5137152;27;20035;-64
2021/01/31 05:14:50;;;;;;;124.30;68.78;;;7.00;90.80;;;;;;5153944;27;20453;-64
2021/01/31 05:17:16;;;;;;;126.65;69.75;;;7.00;91.00;;;;;;5155350;27;20065;-64
2021/01/31 05:19:42;;;;;;;129.02;71.30;;;6.90;91.10;;;;;;5136945;27;20071;-64
2021/01/31 05:22:29;;;;;;;120.90;66.70;;;6.90;91.40;;;;;;5136726;27;20026;-65
2021/01/31 05:24:55;;;;;;;116.32;65.22;;;7.00;92.10;;;;;;5136508;27;20109;-64
2021/01/31 05:27:21;;;;;;;114.13;61.20;;;7.00;91.80;;;;;;5154028;27;20125;-65
2021/01/31 05:29:46;;;;;;;116.90;63.95;;;7.10;92.20;;;;;;5119427;27;20110;-65
2021/01/31 05:32:15;;;;;;;113.55;64.18;;;7.20;92.00;;;;;;5136626;27;20031;-64
2021/01/31 05:34:41;;;;;;;109.63;60.47;;;7.10;92.00;;;;;;5136903;27;20162;-65
2021/01/31 05:37:10;;;;;;;102.65;57.40;;;7.20;92.50;;;;;;5136418;27;20030;-65
2021/01/31 05:39:46;;;;;;;106.90;58.47;;;7.20;92.90;;;;;;5153779;27;20018;-65
2021/01/31 05:42:16;;;;;;;98.40;57.95;;;7.30;92.70;;;;;;5153514;27;20034;-65
2021/01/31 05:44:42;;;;;;;97.35;57.58;;;7.30;93.30;;;;;;5153649;27;20151;-65
2021/01/31 05:47:22;;;;;;;108.30;62.78;;;7.40;92.40;;;;;;5153681;27;20105;-64
2021/01/31 05:49:50;;;;;;;101.25;61.20;;;7.40;92.50;;;;;;5119959;27;20030;-66
2021/01/31 05:52:18;;;;;;;95.78;58.33;;;7.30;92.70;;;;;;5136593;27;20019;-65
2021/01/31 05:54:44;;;;;;;102.57;59.00;;;7.40;92.70;;;;;;5148206;27;20416;-66
2021/01/31 05:57:31;;;;;;;107.78;62.83;;;7.40;92.70;;;;;;5107384;27;20360;-65
2021/01/31 05:59:58;;;;;;;114.93;65.65;;;7.40;92.50;;;;;;5127214;27;20023;-65
2021/01/31 06:02:31;;;;;;;106.63;62.10;;;7.40;92.40;;;;;;5129981;27;20034;-64
2021/01/31 06:05:19;;;;;;;111.15;70.60;;;7.40;92.50;;;;;;5132250;28;20488;-66
2021/01/31 06:07:45;;;;;;;113.95;68.82;;;7.50;92.50;;;;;;5133034;28;20126;-65
2021/01/31 06:10:19;;;;;;;107.38;64.32;;;7.40;92.20;;;;;;5115670;28;20042;-65
2021/01/31 06:12:47;;;;;;;98.97;61.08;;;7.40;92.20;;;;;;5106596;27;20027;-67
2021/01/31 06:15:13;;;;;;;100.13;59.65;;;7.30;92.30;;;;;;5124781;27;20024;-66
2021/01/31 06:17:39;;;;;;;94.00;58.38;;;7.30;92.50;;;;;;5143620;27;20752;-66
2021/01/31 06:20:15;;;;;;;84.18;53.63;;;7.40;92.90;;;;;;5143713;27;20027;-67
2021/01/31 06:22:43;;;;;;;95.40;58.05;;;7.40;92.80;;;;;;5100663;28;20364;-66
2021/01/31 06:25:28;;;;;;;106.95;60.97;;;7.40;92.40;;;;;;5115388;28;20432;-65
2021/01/31 06:28:18;;;;;;;105.05;63.65;;;7.30;92.70;;;;;;5133742;28;20081;-65
2021/01/31 06:30:53;;;;;;;101.00;60.83;;;7.30;93.00;;;;;;5132573;28;20026;-64
2021/01/31 06:33:19;;;;;;;102.35;61.25;;;7.30;92.90;;;;;;5136274;27;20027;-64
2021/01/31 06:35:45;;;;;;;93.25;55.17;;;7.20;92.80;;;;;;5129842;27;20030;-64
2021/01/31 06:38:18;;;;;;;92.63;56.53;;;7.30;93.10;;;;;;5118833;27;20226;-64
2021/01/31 06:40:55;;;;;;;98.22;59.10;;;7.40;93.20;;;;;;5152815;27;20023;-66
2021/01/31 06:43:45;;;;;;;102.82;59.03;;;7.30;93.30;;;;;;5135909;27;20543;-64
2021/01/31 06:46:24;;;;;;;104.35;57.15;;;7.30;93.70;;;;;;5152970;27;20394;-64
2021/01/31 06:49:20;;;;;;;104.82;55.40;;;7.30;93.40;;;;;;5137639;27;20022;-64
2021/01/31 06:55:21;;;;;;;61.00;38.13;;;7.30;94.10;;;;;;5153495;27;20387;-64
2021/01/31 06:57:57;;;;;;;63.38;39.65;;;7.30;94.00;;;;;;5152901;27;20098;-65
2021/01/31 07:00:56;;;;;;;67.30;41.58;;;7.30;94.30;;;;;;5153502;27;20114;-64
2021/01/31 07:03:43;;;;;;;72.93;45.08;;;7.30;94.40;;;;;;5157603;27;20051;-66
2021/01/31 07:06:42;;;;;;;78.50;47.25;;;7.20;94.80;;;;;;5157939;27;20038;-66
2021/01/31 07:09:20;;;;;;;76.22;49.28;;;7.20;94.70;;;;;;5157803;27;20023;-65
2021/01/31 07:12:07;;;;;;;79.22;50.03;;;7.30;95.10;;;;;;5158012;27;20054;-65
2021/01/31 07:14:52;;;;;;;81.70;49.67;;;7.30;95.50;;;;;;5156604;27;20027;-65
2021/01/31 07:17:36;;;;;;;84.00;52.65;;;7.40;95.00;;;;;;5157726;27;20019;-64
2021/01/31 07:20:14;;;;;;;69.80;44.92;;;7.30;95.00;;;;;;5138998;27;20378;-64
2021/01/31 07:23:02;;;;;;;73.10;46.35;;;7.30;95.30;;;;;;5156049;27;20490;-64
2021/01/31 07:25:39;;;;;;;65.82;44.00;;;7.30;94.60;;;;;;5128243;27;20054;-64
2021/01/31 07:28:20;;;;;;;70.53;44.05;;;7.40;94.80;;;;;;5121438;27;20031;-65
2021/01/31 07:30:55;;;;;;;64.32;42.58;;;7.50;95.10;;;;;;5135400;27;20550;-65
2021/01/31 07:33:35;;;;;;;66.15;42.20;;;7.50;94.30;;;;;;5118663;27;20041;-65
2021/01/31 07:36:37;;;;;;;63.08;41.38;;;7.60;94.20;;;;;;5118272;27;20099;-65
2021/01/31 07:39:20;;;;;;;59.40;39.83;;;7.70;94.60;;;;;;5135672;27;20035;-64
2021/01/31 07:41:54;;;;;;;58.17;38.40;;;7.80;94.00;;;;;;5134945;27;20451;-65
2021/01/31 07:44:22;;;;;;;54.17;37.72;;;7.80;94.10;;;;;;5118250;27;20526;-66
2021/01/31 07:46:48;;;;;;;65.00;41.08;;;7.80;93.30;;;;;;5118601;27;20019;-66
2021/01/31 07:49:14;;;;;;;68.65;43.20;;;7.70;93.30;;;;;;5118286;27;20125;-65
2021/01/31 07:51:40;;;;;;;69.40;45.83;;;7.80;93.80;;;;;;5117971;27;20098;-65
2021/01/31 07:54:24;;;;;;;66.15;44.35;;;7.70;93.50;;;;;;5136246;27;20031;-65
2021/01/31 07:56:51;;;;;;;56.65;38.72;;;7.80;93.70;;;;;;5134968;27;20083;-65
2021/01/31 07:59:20;;;;;;;55.70;37.88;;;7.90;93.70;;;;;;5117851;27;20114;-65
2021/01/31 08:01:58;;;;;;;52.35;36.42;;;7.90;93.40;;;;;;5135894;27;20063;-65
2021/01/31 08:04:34;;;;;;;49.60;36.25;;;8.00;93.20;;;;;;5117209;27;20526;-64
2021/01/31 08:07:04;;;;;;;51.80;38.15;;;8.10;93.40;;;;;;5134870;27;20482;-65
2021/01/31 08:09:30;;;;;;;51.70;35.80;;;8.20;93.90;;;;;;5101147;27;20547;-64
2021/01/31 08:12:11;;;;;;;54.60;38.42;;;8.20;92.50;;;;;;5135602;27;20098;-65
2021/01/31 08:15:09;;;;;;;53.58;38.15;;;8.30;92.60;;;;;;5134664;27;20058;-64
2021/01/31 08:20:53;;;;;;;54.35;37.40;;;8.40;93.00;;;;;;5125964;27;20031;-64
2021/01/31 08:23:31;;;;;;;53.08;37.22;;;8.50;92.70;;;;;;5117352;27;20103;-64
2021/01/31 08:26:03;;;;;;;54.35;38.05;;;8.40;92.30;;;;;;5138656;27;20374;-72
2021/01/31 08:28:38;;;;;;;60.60;42.10;;;8.40;91.70;;;;;;5135591;27;20029;-66
2021/01/31 08:31:12;;;;;;;61.35;41.60;;;8.20;92.10;;;;;;5119986;27;20170;-66
2021/01/31 08:33:42;;;;;;;65.07;44.03;;;8.20;92.10;;;;;;5137511;27;20022;-65
2021/01/31 08:36:19;;;;;;;62.13;40.85;;;8.20;93.00;;;;;;5117337;27;20023;-67
2021/01/31 08:38:54;;;;;;;54.33;37.25;;;8.20;91.90;;;;;;5134712;27;20482;-64
2021/01/31 08:41:30;;;;;;;55.35;37.28;;;8.20;92.10;;;;;;5117166;27;20022;-63
2021/01/31 08:43:57;;;;;;;49.05;36.33;;;8.20;91.80;;;;;;5133775;27;20034;-64
2021/01/31 08:46:28;;;;;;;52.97;37.80;;;8.30;92.30;;;;;;5116989;27;20027;-64
2021/01/31 08:48:56;;;;;;;59.85;38.17;;;8.30;91.80;;;;;;5133986;27;20023;-64
2021/01/31 08:51:27;;;;;;;58.58;39.30;;;8.20;92.40;;;;;;5116936;27;20035;-65
2021/01/31 08:54:13;;;;;;;63.05;43.38;;;8.10;91.80;;;;;;5133566;27;20387;-66
2021/01/31 08:56:40;;;;;;;62.63;41.78;;;8.10;92.20;;;;;;5116356;27;20027;-66
2021/01/31 08:59:06;;;;;;;61.85;42.50;;;8.10;92.80;;;;;;5133346;27;20027;-65
2021/01/31 09:01:43;;;;;;;63.47;41.42;;;8.00;92.50;;;;;;5099544;27;20091;-68
2021/01/31 09:04:09;;;;;;;61.08;41.80;;;7.90;92.40;;;;;;5115981;27;20443;-65
2021/01/31 09:06:37;;;;;;;63.03;43.00;;;7.80;92.10;;;;;;5116554;27;20148;-65
2021/01/31 09:09:03;;;;;;;57.75;40.35;;;7.80;92.50;;;;;;5116411;27;20098;-65
2021/01/31 09:11:28;;;;;;;55.05;38.67;;;7.90;93.10;;;;;;5133518;27;20042;-64
2021/01/31 09:13:54;;;;;;;60.03;39.97;;;7.90;92.40;;;;;;5116251;27;20405;-65
2021/01/31 09:16:25;;;;;;;64.88;42.03;;;7.90;92.90;;;;;;5116501;27;20371;-64
2021/01/31 09:19:34;;;;;;;66.43;44.15;;;7.90;92.60;;;;;;5116162;27;20015;-63
2021/01/31 09:22:12;;;;;;;68.32;43.50;;;7.90;93.10;;;;;;5133228;27;20031;-63
2021/01/31 09:24:39;;;;;;;60.88;40.63;;;7.80;92.60;;;;;;5115670;27;20023;-66
2021/01/31 09:27:05;;;;;;;67.18;40.45;;;7.80;92.80;;;;;;5099203;27;20118;-63
2021/01/31 09:29:31;;;;;;;65.38;41.20;;;7.70;92.50;;;;;;5116227;27;20027;-65
2021/01/31 09:32:30;;;;;;;58.53;37.85;;;7.70;93.60;;;;;;5099004;27;20019;-64
2021/01/31 09:34:55;;;;;;;58.90;38.15;;;7.60;92.80;;;;;;5132949;27;20027;-65
2021/01/31 09:37:26;;;;;;;60.85;39.15;;;7.60;92.70;;;;;;5115996;27;20038;-64
2021/01/31 09:39:54;;;;;;;64.47;39.67;;;7.60;93.70;;;;;;5116609;27;20031;-65
2021/01/31 09:42:19;;;;;;;68.68;41.38;;;7.40;92.70;;;;;;5115726;27;20375;-64
2021/01/31 09:45:01;;;;;;;61.30;39.72;;;7.50;93.10;;;;;;5115786;27;20027;-65
2021/01/31 09:47:27;;;;;;;63.92;41.03;;;7.50;93.20;;;;;;5137194;27;20475;-67
2021/01/31 09:49:56;;;;;;;59.72;38.63;;;7.40;93.10;;;;;;5136434;27;20081;-65
2021/01/31 09:52:22;;;;;;;54.85;35.05;;;7.30;92.90;;;;;;5136861;27;20363;-64
2021/01/31 09:54:48;;;;;;;62.47;38.58;;;7.40;93.10;;;;;;5136228;27;20027;-64
2021/01/31 09:57:20;;;;;;;58.38;36.38;;;7.30;92.70;;;;;;5119092;27;20109;-65
2021/01/31 09:59:46;;;;;;;68.28;39.72;;;7.40;93.50;;;;;;5136251;27;20029;-64
2021/01/31 10:02:22;;;;;;;58.80;37.63;;;7.40;93.00;;;;;;5136348;27;20049;-65
2021/01/31 10:05:09;;;;;;;71.70;42.55;;;7.50;92.70;;;;;;5152450;27;20054;-65
2021/01/31 10:07:39;;;;;;;58.47;37.72;;;7.50;92.50;;;;;;5153531;27;20113;-65
2021/01/31 10:10:36;;;;;;;69.47;44.97;;;7.50;92.60;;;;;;5137127;27;20103;-65
2021/01/31 10:13:34;;;;;;;72.05;43.10;;;7.40;92.70;;;;;;5151024;27;20082;-64
2021/01/31 10:16:02;;;;;;;67.97;41.05;;;7.50;93.70;;;;;;5141479;27;20355;-63
2021/01/31 10:18:36;;;;;;;71.43;41.83;;;7.50;93.20;;;;;;5118739;27;20066;-63
2021/01/31 10:21:25;;;;;;;69.55;42.95;;;7.40;92.90;;;;;;5119141;27;20110;-64
2021/01/31 10:24:00;;;;;;;76.18;46.20;;;7.50;94.30;;;;;;5153362;27;20087;-68
2021/01/31 10:26:26;;;;;;;61.40;39.35;;;7.50;93.00;;;;;;5136252;27;20023;-65
2021/01/31 10:28:52;;;;;;;57.83;38.35;;;7.40;93.10;;;;;;5118810;27;20031;-65
2021/01/31 10:31:34;;;;;;;54.78;37.05;;;7.40;92.40;;;;;;5153204;27;20066;-64
2021/01/31 10:34:01;;;;;;;;;;;7.40;92.80;;;;;;5136310;27;20026;-65
2021/01/31 10:36:33;;;;;;;64.07;39.72;;;7.40;92.60;;;;;;5155573;27;19903;-64
2021/01/31 10:39:09;;;;;;;61.65;39.08;;;7.40;93.30;;;;;;5156924;27;20023;-65
2021/01/31 10:41:42;;;;;;;64.72;37.13;;;7.30;92.70;;;;;;5156987;27;20033;-66
2021/01/31 10:44:34;;;;;;;57.45;35.50;;;7.30;93.10;;;;;;5136075;27;20031;-66
2021/01/31 10:47:00;;;;;;;52.95;34.08;;;7.30;92.30;;;;;;5131443;27;20096;-65
2021/01/31 10:49:26;;;;;;;55.58;36.30;;;7.30;93.00;;;;;;5116790;27;20027;-67
2021/01/31 10:51:52;;;;;;;55.20;34.40;;;7.30;92.90;;;;;;5113056;27;20031;-64
2021/01/31 10:54:21;;;;;;;55.67;35.20;;;7.30;92.80;;;;;;5136135;27;20038;-64
2021/01/31 10:56:46;;;;;;;54.03;34.47;;;7.20;92.40;;;;;;5135970;27;20468;-64
2021/01/31 10:59:12;;;;;;;63.22;37.95;;;7.20;93.00;;;;;;5122072;27;20033;-64
2021/01/31 11:01:45;;;;;;;52.63;35.22;;;7.00;91.90;;;;;;5136087;27;20034;-64
2021/01/31 11:04:11;;;;;;;48.20;32.00;;;7.00;92.90;;;;;;5119097;27;20051;-64
2021/01/31 11:06:36;;;;;;;45.60;30.08;;;7.00;93.20;;;;;;5119256;27;20035;-64
2021/01/31 11:09:03;;;;;;;42.03;27.42;;;7.00;93.00;;;;;;5135846;27;20027;-65
2021/01/31 11:11:28;;;;;;;42.15;27.83;;;7.00;93.20;;;;;;5144559;27;20030;-64
2021/01/31 11:13:54;;;;;;;38.30;25.33;;;6.90;93.10;;;;;;5156548;27;20022;-66
2021/01/31 11:16:20;;;;;;;39.60;25.88;;;7.00;93.10;;;;;;5139208;27;20030;-65
2021/01/31 11:18:46;;;;;;;41.50;25.75;;;6.90;92.60;;;;;;5138663;27;20026;-66
2021/01/31 11:21:20;;;;;;;40.58;26.63;;;6.70;93.00;;;;;;5139517;27;20029;-66
2021/01/31 11:23:46;;;;;;;43.67;26.02;;;6.70;92.90;;;;;;5139593;27;20023;-64
2021/01/31 11:26:11;;;;;;;40.35;27.88;;;6.70;93.60;;;;;;5156338;27;20041;-64
2021/01/31 11:28:37;;;;;;;44.42;30.35;;;6.60;93.00;;;;;;5156183;27;20463;-65
2021/01/31 11:31:03;;;;;;;42.35;29.05;;;6.40;92.90;;;;;;5156133;27;20351;-64
2021/01/31 11:33:29;;;;;;;48.78;30.50;;;6.60;94.30;;;;;;5156215;27;20034;-66
2021/01/31 11:35:54;;;;;;;44.72;28.10;;;6.50;94.90;;;;;;5138840;27;20490;-65
2021/01/31 11:38:20;;;;;;;47.88;31.42;;;6.40;93.60;;;;;;5157102;27;20475;-64
2021/01/31 11:40:46;;;;;;;48.65;32.20;;;6.40;92.90;;;;;;5138582;27;20455;-65
2021/01/31 11:43:12;;;;;;;46.50;30.58;;;6.40;93.40;;;;;;5138376;27;20030;-67
2021/01/31 11:45:38;;;;;;;41.05;28.08;;;6.30;93.00;;;;;;5138682;27;20031;-66
2021/01/31 11:48:04;;;;;;;45.15;29.08;;;6.20;93.60;;;;;;5138135;27;20030;-65
2021/01/31 11:50:29;;;;;;;47.33;30.13;;;6.40;94.20;;;;;;5121388;27;20027;-67
2021/01/31 11:52:55;;;;;;;46.38;30.65;;;6.20;93.40;;;;;;5121263;27;20114;-67
2021/01/31 11:55:21;;;;;;;52.78;30.30;;;6.20;94.20;;;;;;5138490;27;20061;-66
2021/01/31 11:57:47;;;;;;;40.50;26.23;;;6.20;94.00;;;;;;5121148;27;20103;-66
2021/01/31 12:00:15;;;;;;;42.72;26.75;;;6.30;94.50;;;;;;5138277;27;20546;-65
2021/01/31 12:02:41;;;;;;;47.67;27.70;;;6.30;93.20;;;;;;5155534;27;20512;-66
2021/01/31 12:05:11;;;;;;;46.40;29.67;;;6.10;93.30;;;;;;5155294;27;20130;-65
2021/01/31 12:07:38;;;;;;;43.75;26.90;;;6.10;93.80;;;;;;5138571;27;20025;-66
2021/01/31 12:10:05;;;;;;;46.38;28.40;;;6.10;94.20;;;;;;5138367;27;20022;-67
2021/01/31 12:12:31;;;;;;;45.17;28.48;;;6.20;94.40;;;;;;5121156;27;20042;-67
2021/01/31 12:14:57;;;;;;;42.65;27.17;;;6.10;93.30;;;;;;5138164;27;20391;-67
2021/01/31 12:17:22;;;;;;;48.60;28.80;;;6.10;94.60;;;;;;5120822;27;20474;-68
2021/01/31 12:19:48;;;;;;;47.78;30.20;;;6.10;93.30;;;;;;5137699;27;20022;-69
2021/01/31 12:22:14;;;;;;;50.13;32.00;;;6.10;93.60;;;;;;5120579;27;20022;-68
2021/01/31 12:24:40;;;;;;;50.53;31.42;;;6.30;93.80;;;;;;5137849;27;20030;-68
2021/01/31 12:27:06;;;;;;;54.97;35.15;;;6.30;93.50;;;;;;5137705;27;20062;-69
2021/01/31 12:29:33;;;;;;;43.88;29.42;;;6.40;93.70;;;;;;5154891;27;20034;-65
2021/01/31 12:31:59;;;;;;;44.35;27.10;;;6.40;93.70;;;;;;5155079;27;20037;-66
2021/01/31 12:34:25;;;;;;;41.83;27.13;;;6.30;94.70;;;;;;5137828;27;20022;-64
2021/01/31 12:36:51;;;;;;;47.70;30.10;;;6.40;93.40;;;;;;5137592;27;20030;-65
2021/01/31 12:39:17;;;;;;;49.03;30.90;;;6.30;93.20;;;;;;5154454;27;20380;-68
2021/01/31 12:41:42;;;;;;;46.90;25.30;;;6.30;93.60;;;;;;5137680;27;20165;-69
2021/01/31 12:44:08;;;;;;;72.05;36.80;;;6.40;93.10;;;;;;5120192;27;20029;-67
2021/01/31 12:46:34;;;;;;;45.97;27.67;;;6.80;99.90;;;;;;5119898;27;20113;-66
2021/01/31 12:49:00;;;;;;;47.75;27.88;;;7.20;99.90;;;;;;5120122;27;20049;-65
2021/01/31 12:51:26;;;;;;;36.85;23.63;;;7.30;97.90;;;;;;5137402;27;20034;-67
2021/01/31 12:53:52;;;;;;;42.97;26.05;;;7.20;92.00;;;;;;5154611;27;20030;-66
2021/01/31 12:56:18;;;;;;;38.03;25.90;;;6.80;91.30;;;;;;5154786;27;20022;-66
2021/01/31 12:58:44;;;;;;;38.00;25.05;;;6.80;93.10;;;;;;5135899;27;20378;-68
2021/01/31 13:01:09;;;;;;;36.63;23.27;;;6.70;92.50;;;;;;5136876;27;20026;-67
2021/01/31 13:03:44;;;;;;;37.20;24.58;;;6.70;93.30;;;;;;5124786;27;20058;-67
2021/01/31 13:06:12;;;;;;;39.03;25.20;;;6.60;93.00;;;;;;5154523;27;20434;-68